Time;durP1;ratioP1;P1;durP2;ratioP2;P2;SDS_P1;SDS_P2;PMS_P1;PMS_P2;Temp;Humidity;BMP_temperature;BMP_pressure;BME280_temperature;BME280_humidity;BME280_pressure;Samples;Min_cycle;Max_cycle;Signal;HPM_P1;HPM_P2
2022/11/12 00:01:45;;;;;;;;;;;;;;;;;;6115486;19;1283;-60
2022/11/12 00:03:48;;;;;;;;;;;;;;;;;;6115235;19;1045;-59
2022/11/12 00:05:52;;;;;;;;;;;;;;;;;;6117083;19;1041;-60
2022/11/12 00:07:55;;;;;;;;;;;;;;;;;;6093352;19;1309;-62
2022/11/12 00:10:01;;;;;;;;;;;;;;;21.24;nan;96474.38;6115552;19;1165;-61
2022/11/12 00:12:03;;;;;;;;;;;;;;;;;;6115991;19;1386;-60
2022/11/12 00:14:06;;;;;;;;;;;;;;;;;;6115507;19;1132;-60
2022/11/12 00:16:09;;;;;;;;;;;;;;;;;;6115387;19;1066;-61
2022/11/12 00:18:12;;;;;;;;;;;;;;;;;;6121926;19;1841;-61
2022/11/12 00:20:15;;;;;;;;;;;;;;;;;;6098141;19;1394;-60
2022/11/12 00:22:18;;;;;;;;;;;;;;;;;;6123330;19;1628;-58
2022/11/12 00:24:21;;;;;;;;;;;;;;;;;;6121294;19;970;-59
2022/11/12 00:26:24;;;;;;;;;;;;;;;;;;6120280;19;1045;-60
2022/11/12 00:28:27;;;;;;;;;;;;;;;;;;6123319;19;962;-60
2022/11/12 00:30:30;;;;;;;;;;;;;;;;;;6104579;19;1373;-60
2022/11/12 00:32:33;;;;;;;;;;;;;;;;;;6116341;19;1910;-61
2022/11/12 00:34:36;;;;;;;;;;;;;;;;;;6122749;19;1053;-62
2022/11/12 00:36:39;;;;;;;;;;;;;;;;;;6120738;19;1282;-60
2022/11/12 00:38:42;;;;;;;;;;;;;;;;;;6121567;19;1869;-60
2022/11/12 00:40:45;;;;;;;;;;;;;;;;;;6119964;19;1057;-60
2022/11/12 00:42:48;;;;;;;;;;;;;;;;;;6097557;19;1585;-60
2022/11/12 00:44:51;;;;;;;;;;;;;;;;;;6120752;19;1033;-61
2022/11/12 00:46:54;;;;;;;;;;;;;;;;;;6122459;19;917;-60
2022/11/12 00:48:57;;;;;;;;;;;;;;;;;;6119941;19;1053;-59
2022/11/12 00:51:00;;;;;;;;;;;;;;;;;;6121920;19;1050;-59
2022/11/12 00:53:03;;;;;;;;;;;;;;;;;;6109389;19;1398;-59
2022/11/12 00:55:06;;;;;;;;;;;;;;;;;;6109904;19;1337;-60
2022/11/12 00:57:09;;;;;;;;;;;;;;;;;;6120449;19;1678;-61
2022/11/12 00:59:12;;;;;;;;;;;;;;;;;;6120597;19;1845;-59
2022/11/12 01:01:15;;;;;;;;;;;;;;;;;;6120185;19;1376;-60
2022/11/12 01:03:17;;;;;;;;;;;;;;;;;;6119558;19;1033;-60
2022/11/12 01:05:20;;;;;;;;;;;;;;;;;;6097250;19;2137;-60
2022/11/12 01:07:23;;;;;;;;;;;;;;;;;;6120052;19;1070;-60
2022/11/12 01:09:26;;;;;;;;;;;;;;;;;;6119522;19;1033;-59
2022/11/12 01:11:32;;;;;;;;;;;;;;;21.40;nan;96409.22;6120173;19;1739;-60
2022/11/12 01:13:36;;;;;;;;;;;;;;;21.47;nan;96426.19;6122091;19;1014;-61
2022/11/12 01:15:42;;;;;;;;;;;;;;;21.45;nan;96422.88;6110815;19;1155;-59
2022/11/12 01:17:45;;;;;;;;;;;;;;;21.44;nan;96431.91;6107418;19;1384;-61
2022/11/12 01:19:48;;;;;;;;;;;;;;;21.46;nan;96435.25;6119808;19;1835;-60
2022/11/12 01:21:51;;;;;;;;;;;;;;;21.49;nan;96434.88;6119717;19;1066;-62
2022/11/12 01:23:55;;;;;;;;;;;;;;;21.49;nan;96434.03;6119816;19;1604;-59
2022/11/12 01:25:58;;;;;;;;;;;;;;;21.50;nan;96447.22;6118850;19;1065;-60
2022/11/12 01:28:04;;;;;;;;;;;;;;;21.49;nan;96437.53;6097936;19;1691;-60
2022/11/12 01:30:08;;;;;;;;;;;;;;;21.48;nan;96438.53;6119470;19;951;-59
2022/11/12 01:32:11;;;;;;;;;;;;;;;21.47;nan;96431.53;6120450;19;1152;-60
2022/11/12 01:34:15;;;;;;;;;;;;;;;21.48;nan;96429.69;6119023;19;1070;-60
2022/11/12 01:36:19;;;;;;;;;;;;;;;21.48;nan;96427.00;6120964;19;1144;-61
2022/11/12 01:38:22;;;;;;;;;;;;;;;21.48;nan;96422.50;6108117;19;1853;-60
2022/11/12 01:40:25;;;;;;;;;;;;;;;21.47;nan;96425.38;6108541;19;1403;-59
2022/11/12 01:42:31;;;;;;;;;;;;;;;21.50;nan;96416.97;6121395;19;1135;-59
2022/11/12 01:44:37;;;;;;;;;;;;;;;21.51;nan;96415.94;6120905;19;1050;-60
2022/11/12 01:46:45;;;;;;;;;;;;;;;21.49;nan;96410.81;6118801;19;971;-60
2022/11/12 01:48:51;;;;;;;;;;;;;;;21.49;nan;96408.13;6119156;19;1105;-60
2022/11/12 01:50:55;;;;;;;;;;;;;;;21.51;nan;96414.09;6096093;19;1756;-59
2022/11/12 01:53:02;;;;;;;;;;;;;;;21.51;nan;96414.09;6119372;19;971;-60
2022/11/12 01:55:07;;;;;;;;;;;;;;;21.49;nan;96413.47;6120261;19;1017;-60
2022/11/12 01:57:11;;;;;;;;;;;;;;;21.50;nan;96420.47;6119210;19;1054;-60
2022/11/12 01:59:18;;;;;;;;;;;;;;;21.50;nan;96415.13;6118858;19;1849;-61
2022/11/12 02:01:24;;;;;;;;;;;;;;;21.48;nan;96411.78;6101168;19;1719;-64
2022/11/12 02:03:28;;;;;;;;;;;;;;;21.47;nan;96406.66;6120425;19;997;-58
2022/11/12 02:05:32;;;;;;;;;;;;;;;21.47;nan;96410.16;6120381;19;1033;-61
2022/11/12 02:07:37;;;;;;;;;;;;;;;21.44;nan;96419.38;6119030;19;1059;-61
2022/11/12 02:09:41;;;;;;;;;;;;;;;21.47;nan;96406.66;6117744;19;1129;-61
2022/11/12 02:11:44;;;;;;;;;;;;;;;21.51;nan;96411.44;6120115;19;1065;-60
2022/11/12 02:13:59;;;;;;;;;;;;;;;21.47;nan;96410.16;6098085;19;1749;-60
2022/11/12 02:16:04;;;;;;;;;;;;;;;21.48;nan;96411.78;6117957;19;1105;-60
2022/11/12 02:18:10;;;;;;;;;;;;;;;21.50;nan;96414.31;6120281;19;890;-61
2022/11/12 02:20:14;;;;;;;;;;;;;;;21.50;nan;96415.13;6118094;19;1842;-63
2022/11/12 02:22:20;;;;;;;;;;;;;;;21.50;nan;96417.81;6118355;19;1119;-62
2022/11/12 02:24:33;;;;;;;;;;;;;;;21.51;nan;96422.13;6095143;19;1432;-61
2022/11/12 02:26:38;;;;;;;;;;;;;;;21.54;nan;96419.13;6119778;19;1066;-61
2022/11/12 02:28:42;;;;;;;;;;;;;;;21.56;nan;96409.03;6117932;19;1005;-60
2022/11/12 02:30:46;;;;;;;;;;;;;;;21.55;nan;96415.41;6117293;19;1041;-60
2022/11/12 02:32:50;;;;;;;;;;;;;;;21.58;nan;96417.72;6119037;19;1069;-59
2022/11/12 02:34:53;;;;;;;;;;;;;;;21.55;nan;96418.09;6107770;19;1474;-64
2022/11/12 02:36:56;;;;;;;;;;;;;;;21.55;nan;96420.75;6107548;19;2127;-59
2022/11/12 02:39:02;;;;;;;;;;;;;;;21.59;nan;96424.72;6115552;19;1863;-60
2022/11/12 02:41:06;;;;;;;;;;;;;;;21.57;nan;96425.91;6116931;19;1029;-59
2022/11/12 02:43:09;;;;;;;;;;;;;;;21.58;nan;96425.75;6117565;19;1179;-61
2022/11/12 02:45:13;;;;;;;;;;;;;;;21.60;nan;96413.03;6119665;19;1358;-59
2022/11/12 02:47:16;;;;;;;;;;;;;;;21.57;nan;96408.03;6095255;19;1596;-59
2022/11/12 02:49:19;;;;;;;;;;;;;;;21.58;nan;96406.19;6117416;19;1033;-62
2022/11/12 02:51:22;;;;;;;;;;;;;;;21.59;nan;96414.03;6118486;19;1065;-60
2022/11/12 02:53:26;;;;;;;;;;;;;;;21.61;nan;96420.03;6116417;19;1073;-60
2022/11/12 02:55:32;;;;;;;;;;;;;;;21.61;nan;96406.66;6117832;19;970;-61
2022/11/12 02:57:35;;;;;;;;;;;;;;;21.61;nan;96409.31;6108009;19;1450;-60
2022/11/12 02:59:38;;;;;;;;;;;;;;;21.62;nan;96402.13;6106346;19;1853;-68
2022/11/12 03:01:42;;;;;;;;;;;;;;;21.63;nan;96403.81;6117389;19;1275;-69
2022/11/12 03:03:45;;;;;;;;;;;;;;;21.63;nan;96404.63;6117513;19;970;-68
2022/11/12 03:05:55;;;;;;;;;;;;;;;21.68;nan;96406.72;6118836;19;1136;-68
2022/11/12 03:07:59;;;;;;;;;;;;;;;21.66;nan;96406.94;6116779;19;1046;-68
2022/11/12 03:10:03;;;;;;;;;;;;;;;21.65;nan;96407.09;6095033;19;1641;-65
2022/11/12 03:12:09;;;;;;;;;;;;;;;21.65;nan;96409.78;6117246;19;1105;-68
2022/11/12 03:14:12;;;;;;;;;;;;;;;21.66;nan;96412.28;6117660;19;1038;-67
2022/11/12 03:16:15;;;;;;;;;;;;;;;21.63;nan;96409.16;6117302;19;1137;-68
2022/11/12 03:18:19;;;;;;;;;;;;;;;21.61;nan;96408.50;6116715;19;1129;-69
2022/11/12 03:20:22;;;;;;;;;;;;;;;21.69;nan;96403.06;6105949;19;1859;-70
2022/11/12 03:22:25;;;;;;;;;;;;;;;21.72;nan;96407.22;6106408;19;1494;-69
2022/11/12 03:24:28;;;;;;;;;;;;;;;21.42;nan;96407.19;6116952;19;1033;-68
2022/11/12 03:26:32;;;;;;;;;;;;;;;21.26;nan;96410.03;6118207;19;1355;-67
2022/11/12 03:28:38;;;;;;;;;;;;;;;21.42;nan;96413.34;6116834;19;1140;-68
2022/11/12 03:30:42;;;;;;;;;;;;;;;21.54;nan;96408.41;6117494;19;990;-68
2022/11/12 03:32:46;;;;;;;;;;;;;;;21.60;nan;96407.66;6094254;19;2032;-68
2022/11/12 03:34:49;;;;;;;;;;;;;;;21.63;nan;96415.31;6116599;19;1021;-68
2022/11/12 03:36:52;;;;;;;;;;;;;;;21.62;nan;96408.28;6116568;19;985;-70
2022/11/12 03:38:55;;;;;;;;;;;;;;;21.63;nan;96414.50;6117242;19;1853;-69
2022/11/12 03:40:59;;;;;;;;;;;;;;;21.63;nan;96415.31;6118228;19;1022;-69
2022/11/12 03:43:02;;;;;;;;;;;;;;;21.64;nan;96414.31;6107190;19;1244;-69
2022/11/12 03:45:08;;;;;;;;;;;;;;;21.67;nan;96415.78;6104343;19;1984;-69
2022/11/12 03:47:12;;;;;;;;;;;;;;;21.66;nan;96409.59;6116325;19;1126;-70
2022/11/12 03:49:15;;;;;;;;;;;;;;;21.72;nan;96412.56;6116039;19;1074;-69
2022/11/12 03:51:20;;;;;;;;;;;;;;;21.71;nan;96408.22;6119264;19;1033;-69
2022/11/12 03:53:23;;;;;;;;;;;;;;;21.72;nan;96415.25;6121134;19;1045;-69
2022/11/12 03:55:27;;;;;;;;;;;;;;;21.70;nan;96414.59;6099386;19;1829;-69
2022/11/12 03:57:30;;;;;;;;;;;;;;;21.72;nan;96417.91;6121794;19;1054;-70
2022/11/12 03:59:34;;;;;;;;;;;;;;;21.73;nan;96419.56;6120899;19;1837;-69
2022/11/12 04:01:39;;;;;;;;;;;;;;;21.71;nan;96410.88;6122496;19;1300;-70
2022/11/12 04:03:43;;;;;;;;;;;;;;;21.34;nan;96420.63;6123395;19;1062;-68
2022/11/12 04:10:18;;;;;;;;;;;;;;;21.53;nan;96414.75;6123987;19;1042;-69
2022/11/12 04:14:37;;;;;;;;;;;;;;;21.62;nan;96408.28;6123101;19;775;-67
2022/11/12 04:23:32;;;;;;;;;;;;;;;21.67;nan;96397.88;6122464;19;866;-69
2022/11/12 04:27:51;;;;;;;;;;;;;;;21.68;nan;96394.22;6123698;19;799;-69
2022/11/12 04:32:13;;;;;;;;;;;;;;;21.72;nan;96391.16;6123662;19;846;-69
2022/11/12 04:34:33;;;;;;;;;;;;;;;21.75;nan;96385.44;6120808;19;1117;-69
2022/11/12 04:36:36;;;;;;;;;;;;;;;21.77;nan;96388.72;6120312;19;1033;-69
2022/11/12 04:38:39;;;;;;;;;;;;;;;21.76;nan;96387.09;6121008;19;1016;-68
2022/11/12 04:45:14;;;;;;;;;;;;;;;21.80;nan;96399.91;6122524;19;859;-68
2022/11/12 04:47:19;;;;;;;;;;;;;;;21.78;nan;96399.25;6122545;19;1037;-66
2022/11/12 04:49:23;;;;;;;;;;;;;;;21.79;nan;96403.59;6120673;19;1065;-69
2022/11/12 04:53:42;;;;;;;;;;;;;;;21.76;nan;96401.28;6117481;19;1266;-70
2022/11/12 04:55:45;;;;;;;;;;;;;;;21.84;nan;96405.72;6120166;19;1053;-72
2022/11/12 04:57:48;;;;;;;;;;;;;;;21.88;nan;96407.00;6120225;19;1116;-70
2022/11/12 04:59:52;;;;;;;;;;;;;;;21.89;nan;96404.16;6121054;19;1833;-68
2022/11/12 05:01:55;;;;;;;;;;;;;;;21.52;nan;96414.97;6119282;19;1352;-67
2022/11/12 05:04:01;;;;;;;;;;;;;;;20.52;nan;96415.94;6096737;19;1439;-66
2022/11/12 05:06:49;;;;;;;;;;;;;;;19.87;nan;96422.44;6119698;19;987;-65
2022/11/12 05:08:28;;;;;;;;;;;;;;;19.24;nan;96421.41;6121679;19;1734;-66
2022/11/12 05:10:31;;;;;;;;;;;;;;;19.20;nan;96426.22;6121592;19;1225;-66
2022/11/12 05:12:34;;;;;;;;;;;;;;;18.85;nan;96427.41;6120243;19;1033;-66
2022/11/12 05:14:38;;;;;;;;;;;;;;;18.41;nan;96430.34;6096778;19;1991;-67
2022/11/12 05:16:41;;;;;;;;;;;;;;;18.72;nan;96427.91;6119179;19;1137;-70
2022/11/12 05:18:44;;;;;;;;;;;;;;;19.62;nan;96430.50;6119446;19;1977;-67
2022/11/12 05:20:51;;;;;;;;;;;;;;;20.35;nan;96433.88;6120770;19;1853;-67
2022/11/12 05:22:54;;;;;;;;;;;;;;;20.66;nan;96433.03;6121892;19;970;-69
2022/11/12 05:24:58;;;;;;;;;;;;;;;20.76;nan;96438.97;6121419;19;1129;-70
2022/11/12 05:26:58;;;;;;;;;;;;;;;20.79;nan;96436.78;6100623;19;2082;-70
2022/11/12 05:29:02;;;;;;;;;;;;;;;20.84;nan;96438.09;6119041;19;998;-70
2022/11/12 05:31:05;;;;;;;;;;;;;;;20.85;nan;96429.88;6121276;19;1241;-69
2022/11/12 05:33:09;;;;;;;;;;;;;;;20.87;nan;96435.88;6119181;19;1121;-69
2022/11/12 05:35:12;;;;;;;;;;;;;;;20.91;nan;96434.50;6119485;19;1050;-70
2022/11/12 05:37:18;;;;;;;;;;;;;;;20.91;nan;96433.69;6098610;19;1664;-68
2022/11/12 05:39:21;;;;;;;;;;;;;;;20.93;nan;96437.84;6118931;19;1636;-69
2022/11/12 05:41:25;;;;;;;;;;;;;;;20.93;nan;96445.84;6119136;19;1838;-70
2022/11/12 05:43:28;;;;;;;;;;;;;;;20.97;nan;96440.97;6118714;19;976;-68
2022/11/12 05:45:31;;;;;;;;;;;;;;;20.97;nan;96449.00;6119335;19;1849;-67
2022/11/12 05:47:34;;;;;;;;;;;;;;;20.99;nan;96445.13;6119162;19;1041;-69
2022/11/12 05:49:38;;;;;;;;;;;;;;;21.01;nan;96442.28;6096629;19;2069;-68
2022/11/12 05:51:41;;;;;;;;;;;;;;;21.05;nan;96446.25;6118560;19;1037;-68
2022/11/12 05:53:47;;;;;;;;;;;;;;;21.05;nan;96448.94;6119309;19;982;-69
2022/11/12 05:55:50;;;;;;;;;;;;;;;21.13;nan;96437.34;6120923;19;1010;-69
2022/11/12 05:57:53;;;;;;;;;;;;;;;21.15;nan;96433.50;6118486;19;1066;-67
2022/11/12 05:59:57;;;;;;;;;;;;;;;21.14;nan;96445.19;6096630;19;1849;-68
2022/11/12 06:02:00;;;;;;;;;;;;;;;21.13;nan;96456.88;6117665;19;1303;-67
2022/11/12 06:04:03;;;;;;;;;;;;;;;21.31;nan;96451.22;6120573;19;1104;-69
2022/11/12 06:06:07;;;;;;;;;;;;;;;21.48;nan;96457.25;6120065;19;974;-69
2022/11/12 06:08:10;;;;;;;;;;;;;;;21.57;nan;96460.69;6120573;19;1037;-69
2022/11/12 06:10:16;;;;;;;;;;;;;;;21.61;nan;96462.81;6120867;19;1020;-65
2022/11/12 06:12:19;;;;;;;;;;;;;;;21.66;nan;96462.28;6096470;19;1880;-67
2022/11/12 06:14:22;;;;;;;;;;;;;;;21.68;nan;96461.09;6119055;19;1062;-67
2022/11/12 06:16:26;;;;;;;;;;;;;;;21.73;nan;96462.38;6119149;19;1145;-70
2022/11/12 06:18:29;;;;;;;;;;;;;;;21.75;nan;96455.81;6119906;19;945;-66
2022/11/12 06:20:32;;;;;;;;;;;;;;;21.79;nan;96459.78;6117623;19;1841;-67
2022/11/12 06:22:36;;;;;;;;;;;;;;;21.80;nan;96458.78;6100171;19;1638;-67
2022/11/12 06:24:39;;;;;;;;;;;;;;;21.84;nan;96453.88;6118463;19;1077;-66
2022/11/12 06:26:45;;;;;;;;;;;;;;;21.86;nan;96452.69;6118551;19;1057;-68
2022/11/12 06:28:49;;;;;;;;;;;;;;;21.86;nan;96447.34;6117799;19;1038;-69
2022/11/12 06:30:53;;;;;;;;;;;;;;;21.87;nan;96457.03;6118076;19;1855;-69
2022/11/12 06:32:56;;;;;;;;;;;;;;;21.89;nan;96459.53;6118189;19;998;-67
2022/11/12 06:34:59;;;;;;;;;;;;;;;21.92;nan;96456.47;6095141;19;1382;-67
2022/11/12 06:37:02;;;;;;;;;;;;;;;21.96;nan;96460.47;6118324;19;1034;-64
2022/11/12 06:39:06;;;;;;;;;;;;;;;21.98;nan;96465.63;6119592;19;975;-65
2022/11/12 06:41:10;;;;;;;;;;;;;;;21.96;nan;96462.31;6117993;19;1849;-64
2022/11/12 06:43:16;;;;;;;;;;;;;;;21.96;nan;96465.81;6118551;19;1050;-64
2022/11/12 06:45:20;;;;;;;;;;;;;;;21.96;nan;96465.81;6096618;19;1916;-64
2022/11/12 06:47:23;;;;;;;;;;;;;;;21.97;nan;96469.31;6118742;19;1050;-64
2022/11/12 06:49:26;;;;;;;;;;;;;;;21.98;nan;96466.47;6118307;19;1029;-66
2022/11/12 06:51:29;;;;;;;;;;;;;;;21.98;nan;96474.50;6118333;19;1054;-64
2022/11/12 06:53:33;;;;;;;;;;;;;;;21.90;nan;96472.69;6118117;19;1276;-66
2022/11/12 06:55:36;;;;;;;;;;;;;;;21.95;nan;96472.19;6113602;19;1022;-65
2022/11/12 06:57:39;;;;;;;;;;;;;;;21.96;nan;96468.50;6103774;19;2164;-64
2022/11/12 06:59:45;;;;;;;;;;;;;;;21.98;nan;96461.13;6117592;19;971;-65
2022/11/12 07:01:49;;;;;;;;;;;;;;;21.99;nan;96468.13;6117180;19;1837;-66
2022/11/12 07:03:53;;;;;;;;;;;;;;;22.02;nan;96466.91;6117690;19;978;-66
2022/11/12 07:05:56;;;;;;;;;;;;;;;22.03;nan;96464.06;6117852;19;1050;-66
2022/11/12 07:07:59;;;;;;;;;;;;;;;22.03;nan;96466.75;6094876;19;1490;-66
2022/11/12 07:10:03;;;;;;;;;;;;;;;22.04;nan;96454.19;6117130;19;1062;-66
2022/11/12 07:12:06;;;;;;;;;;;;;;;22.07;nan;96462.66;6116761;19;1025;-66
2022/11/12 07:14:10;;;;;;;;;;;;;;;22.07;nan;96464.53;6117618;19;976;-66
2022/11/12 07:16:17;;;;;;;;;;;;;;;22.08;nan;96467.03;6116982;19;1062;-61
2022/11/12 07:18:20;;;;;;;;;;;;;;;22.07;nan;96462.66;6107007;19;1309;-66
2022/11/12 07:20:24;;;;;;;;;;;;;;;22.09;nan;96468.69;6105738;19;1837;-66
2022/11/12 07:22:27;;;;;;;;;;;;;;;22.09;nan;96468.69;6116928;19;1126;-66
2022/11/12 07:24:30;;;;;;;;;;;;;;;22.12;nan;96467.47;6117190;19;991;-64
2022/11/12 07:26:34;;;;;;;;;;;;;;;22.11;nan;96463.16;6115455;19;1017;-66
2022/11/12 07:28:37;;;;;;;;;;;;;;;22.16;nan;96462.56;6117640;19;1145;-65
2022/11/12 07:30:40;;;;;;;;;;;;;;;22.12;nan;96468.31;6095493;19;1816;-64
2022/11/12 07:32:46;;;;;;;;;;;;;;;21.79;nan;96473.16;6116285;19;1148;-68
2022/11/12 07:34:49;;;;;;;;;;;;;;;21.94;nan;96459.81;6116333;19;970;-65
2022/11/12 07:36:53;;;;;;;;;;;;;;;22.08;nan;96468.84;6116996;19;1363;-66
2022/11/12 07:38:56;;;;;;;;;;;;;;;22.11;nan;96469.34;6116626;19;1132;-67
2022/11/12 07:41:02;;;;;;;;;;;;;;;22.13;nan;96466.44;6106757;19;1849;-67
2022/11/12 07:43:06;;;;;;;;;;;;;;;22.16;nan;96473.28;6105800;19;1835;-67
2022/11/12 07:45:09;;;;;;;;;;;;;;;22.18;nan;96468.59;6116430;19;1160;-67
2022/11/12 07:47:13;;;;;;;;;;;;;;;22.17;nan;96469.59;6115785;19;1132;-67
2022/11/12 07:49:19;;;;;;;;;;;;;;;22.16;nan;96467.94;6115950;19;1068;-67
2022/11/12 07:51:23;;;;;;;;;;;;;;;22.13;nan;96469.13;6116482;19;1186;-66
2022/11/12 07:53:26;;;;;;;;;;;;;;;22.12;nan;96462.94;6095887;19;1275;-66
2022/11/12 07:55:29;;;;;;;;;;;;;;;22.11;nan;96466.66;6117717;19;1057;-64
2022/11/12 07:57:34;;;;;;;;;;;;;;;22.09;nan;96474.03;6116887;19;1144;-67
2022/11/12 07:59:37;;;;;;;;;;;;;;;22.13;nan;96479.84;6115875;19;2000;-67
2022/11/12 08:01:41;;;;;;;;;;;;;;;22.13;nan;96480.66;6115589;19;1853;-67
2022/11/12 08:03:44;;;;;;;;;;;;;;;22.13;nan;96480.66;6104260;19;1212;-66
2022/11/12 08:05:51;;;;;;;;;;;;;;;22.12;nan;96478.19;6103993;19;1970;-69
2022/11/12 08:07:56;;;;;;;;;;;;;;;22.14;nan;96486.88;6117537;19;978;-65
2022/11/12 08:09:59;;;;;;;;;;;;;;;22.13;nan;96483.34;6115739;19;1045;-66
2022/11/12 08:12:03;;;;;;;;;;;;;;;22.16;nan;96478.63;6115202;19;1033;-66
2022/11/12 08:14:06;;;;;;;;;;;;;;;22.19;nan;96486.28;6115488;19;1132;-66
2022/11/12 08:16:10;;;;;;;;;;;;;;;22.21;nan;96486.94;6092437;19;1569;-67
2022/11/12 08:18:13;;;;;;;;;;;;;;;22.17;nan;96482.97;6117586;19;1246;-68
2022/11/12 08:20:16;;;;;;;;;;;;;;;22.09;nan;96487.41;6115052;19;1050;-68
2022/11/12 08:22:22;;;;;;;;;;;;;;;21.97;nan;96502.28;6115441;19;1852;-68
2022/11/12 08:24:25;;;;;;;;;;;;;;;21.86;nan;96494.69;6116924;19;1025;-69
2022/11/12 08:26:29;;;;;;;;;;;;;;;21.79;nan;96493.75;6105055;19;1290;-69
2022/11/12 08:28:32;;;;;;;;;;;;;;;21.72;nan;96493.66;6105751;19;1493;-68
2022/11/12 08:30:36;;;;;;;;;;;;;;;21.73;nan;96497.16;6115190;19;1715;-68
2022/11/12 08:32:39;;;;;;;;;;;;;;;21.67;nan;96496.88;6114990;19;1050;-68
2022/11/12 08:34:42;;;;;;;;;;;;;;;21.75;nan;96500.47;6115943;19;1086;-68
2022/11/12 08:36:46;;;;;;;;;;;;;;;21.71;nan;96496.50;6117038;19;987;-69
2022/11/12 08:38:53;;;;;;;;;;;;;;;21.66;nan;96492.53;6097120;19;2281;-68
2022/11/12 08:40:56;;;;;;;;;;;;;;;21.64;nan;96491.06;6119813;19;1852;-68
2022/11/12 08:43:00;;;;;;;;;;;;;;;21.62;nan;96487.72;6122863;19;974;-68
2022/11/12 08:45:03;;;;;;;;;;;;;;;21.82;nan;96498.72;6120568;19;1042;-67
2022/11/12 08:47:07;;;;;;;;;;;;;;;21.96;nan;96495.25;6120791;19;980;-66
2022/11/12 08:49:10;;;;;;;;;;;;;;;22.07;nan;96496.66;6110675;19;1565;-66
2022/11/12 08:51:13;;;;;;;;;;;;;;;22.15;nan;96501.09;6109162;19;1718;-66
2022/11/12 08:53:17;;;;;;;;;;;;;;;22.17;nan;96491.84;6120054;19;1145;-67
2022/11/12 08:55:22;;;;;;;;;;;;;;;22.20;nan;96493.34;6120175;19;1062;-67
2022/11/12 08:57:26;;;;;;;;;;;;;;;22.20;nan;96494.16;6121578;19;1148;-67
2022/11/12 08:59:29;;;;;;;;;;;;;;;22.21;nan;96486.94;6120209;19;1044;-67
2022/11/12 09:01:32;;;;;;;;;;;;;;;22.23;nan;96490.28;6097397;19;1993;-68
2022/11/12 09:03:36;;;;;;;;;;;;;;;22.24;nan;96486.56;6119282;19;967;-67
2022/11/12 09:05:39;;;;;;;;;;;;;;;22.25;nan;96489.09;6119893;19;1969;-67
2022/11/12 09:07:42;;;;;;;;;;;;;;;22.25;nan;96490.91;6120070;19;1034;-67
2022/11/12 09:09:46;;;;;;;;;;;;;;;22.25;nan;96490.91;6120168;19;1077;-67
2022/11/12 09:11:51;;;;;;;;;;;;;;;22.25;nan;96477.50;6110185;19;1182;-67
2022/11/12 09:13:55;;;;;;;;;;;;;;;22.26;nan;96489.91;6110200;19;1263;-66
2022/11/12 09:16:01;;;;;;;;;;;;;;;22.28;nan;96493.22;6119653;19;1022;-67
2022/11/12 09:18:06;;;;;;;;;;;;;;;22.29;nan;96484.19;6119134;19;1058;-67
2022/11/12 09:20:10;;;;;;;;;;;;;;;22.28;nan;96488.72;6119878;19;1019;-67
2022/11/12 09:22:13;;;;;;;;;;;;;;;22.28;nan;96487.84;6120091;19;1829;-63
2022/11/12 09:24:16;;;;;;;;;;;;;;;22.27;nan;96486.19;6097451;19;1821;-68
2022/11/12 09:26:19;;;;;;;;;;;;;;;22.28;nan;96488.72;6121212;19;1037;-67
2022/11/12 09:28:26;;;;;;;;;;;;;;;22.26;nan;96489.91;6119696;19;1078;-67
2022/11/12 09:30:29;;;;;;;;;;;;;;;22.26;nan;96492.59;6119564;19;1057;-65
2022/11/12 09:32:32;;;;;;;;;;;;;;;22.25;nan;96485.53;6119105;19;1033;-66
2022/11/12 09:34:35;;;;;;;;;;;;;;;22.28;nan;96486.03;6108401;19;1113;-66
2022/11/12 09:36:39;;;;;;;;;;;;;;;22.26;nan;96489.91;6108393;19;2169;-66
2022/11/12 09:38:42;;;;;;;;;;;;;;;22.14;nan;96489.56;6119709;19;1037;-68
2022/11/12 09:41:00;;;;;;;;;;;;;;;21.93;nan;96484.88;6119230;19;968;-67
2022/11/12 09:43:11;;;;;;;;;;;;;;;21.79;nan;96489.22;6119639;19;1833;-67
2022/11/12 09:45:20;;;;;;;;;;;;;;;21.66;nan;96487.19;6121121;19;986;-66
2022/11/12 09:47:28;;;;;;;;;;;;;;;21.61;nan;96496.78;6096532;19;1869;-68
2022/11/12 09:49:34;;;;;;;;;;;;;;;21.70;nan;96484.16;6120268;19;1116;-67
2022/11/12 09:51:38;;;;;;;;;;;;;;;21.77;nan;96487.72;6119855;19;1042;-67
2022/11/12 09:53:55;;;;;;;;;;;;;;;21.68;nan;96481.63;6120788;19;1050;-67
2022/11/12 09:55:58;;;;;;;;;;;;;;;21.67;nan;96486.16;6120418;19;1054;-68
2022/11/12 09:58:02;;;;;;;;;;;;;;;21.62;nan;96488.53;6096857;19;1566;-67
2022/11/12 10:00:11;;;;;;;;;;;;;;;21.59;nan;96488.91;6118963;19;1500;-66
2022/11/12 10:02:23;;;;;;;;;;;;;;;21.53;nan;96484.28;6118555;19;1845;-68
2022/11/12 10:04:41;;;;;;;;;;;;;;;21.59;nan;96490.75;6118709;19;1120;-68
2022/11/12 10:06:47;;;;;;;;;;;;;;;21.56;nan;96497.31;6121069;19;1001;-68
2022/11/12 10:08:54;;;;;;;;;;;;;;;21.52;nan;96488.00;6107135;19;1456;-67
2022/11/12 10:11:03;;;;;;;;;;;;;;;21.59;nan;96494.25;6111199;19;1644;-67
2022/11/12 10:13:11;;;;;;;;;;;;;;;21.51;nan;96491.66;6120528;19;1025;-68
2022/11/12 10:17:53;;;;;;;;;;;;;;;21.55;nan;96490.31;6118015;19;1041;-68
2022/11/12 10:20:00;;;;;;;;;;;;;;;21.58;nan;96489.13;6107804;19;1474;-65
2022/11/12 10:22:08;;;;;;;;;;;;;;;21.54;nan;96490.47;6108625;19;1852;-67
2022/11/12 10:24:12;;;;;;;;;;;;;;;21.63;nan;96484.88;6120273;19;1005;-67
2022/11/12 10:26:16;;;;;;;;;;;;;;;21.75;nan;96487.94;6118355;19;979;-69
2022/11/12 10:28:30;;;;;;;;;;;;;;;21.93;nan;96489.41;6119899;19;1042;-62
2022/11/12 10:30:33;;;;;;;;;;;;;;;21.96;nan;96489.91;6118328;19;1022;-63
2022/11/12 10:32:38;;;;;;;;;;;;;;;22.01;nan;96492.88;6096472;19;1915;-63
2022/11/12 10:34:44;;;;;;;;;;;;;;;22.02;nan;96493.69;6118411;19;1035;-63
2022/11/12 10:36:50;;;;;;;;;;;;;;;22.02;nan;96491.84;6119868;19;1025;-63
2022/11/12 10:38:55;;;;;;;;;;;;;;;22.05;nan;96494.16;6118343;19;1042;-63
2022/11/12 10:40:58;;;;;;;;;;;;;;;22.07;nan;96486.75;6118892;19;967;-63
2022/11/12 10:43:03;;;;;;;;;;;;;;;22.11;nan;96488.06;6104030;19;1838;-68
2022/11/12 10:45:20;;;;;;;;;;;;;;;22.09;nan;96487.41;6115362;19;1626;-68
2022/11/12 10:47:29;;;;;;;;;;;;;;;22.08;nan;96488.44;6118716;19;1291;-68
2022/11/12 10:49:32;;;;;;;;;;;;;;;22.10;nan;96483.72;6119334;19;1030;-70
2022/11/12 10:51:39;;;;;;;;;;;;;;;21.98;nan;96487.88;6117945;19;1113;-70
2022/11/12 10:53:42;;;;;;;;;;;;;;;21.94;nan;96489.25;6108284;19;1285;-68
2022/11/12 10:55:56;;;;;;;;;;;;;;;21.91;nan;96486.94;6105671;19;1577;-70
2022/11/12 10:58:21;;;;;;;;;;;;;;;21.86;nan;96484.81;6119737;19;951;-70
2022/11/12 11:00:25;;;;;;;;;;;;;;;21.80;nan;96488.22;6117439;19;1029;-69
2022/11/12 11:02:28;;;;;;;;;;;;;;;21.76;nan;96488.75;6116722;19;1850;-68
2022/11/12 11:04:33;;;;;;;;;;;;;;;21.74;nan;96493.44;6118893;19;1065;-70
2022/11/12 11:06:39;;;;;;;;;;;;;;;21.73;nan;96486.44;6095511;19;1760;-70
2022/11/12 11:08:43;;;;;;;;;;;;;;;21.73;nan;96489.13;6118289;19;1157;-64
2022/11/12 11:10:47;;;;;;;;;;;;;;;21.71;nan;96488.47;6119206;19;978;-69
2022/11/12 11:12:50;;;;;;;;;;;;;;;21.76;nan;96486.09;6117394;19;1085;-69
2022/11/12 11:15:09;;;;;;;;;;;;;;;21.79;nan;96475.84;6117228;19;1054;-64
2022/11/12 11:17:17;;;;;;;;;;;;;;;21.83;nan;96476.31;6094128;19;1463;-69
2022/11/12 11:19:21;;;;;;;;;;;;;;;21.86;nan;96475.94;6116856;19;1696;-69
2022/11/12 11:21:33;;;;;;;;;;;;;;;21.85;nan;96471.59;6117258;19;1232;-68
2022/11/12 11:23:42;;;;;;;;;;;;;;;21.87;nan;96474.94;6116566;19;1856;-68
2022/11/12 11:25:49;;;;;;;;;;;;;;;21.86;nan;96481.31;6118867;19;1021;-69
2022/11/12 11:28:01;;;;;;;;;;;;;;;21.87;nan;96470.41;6106339;19;1483;-69
2022/11/12 11:30:12;;;;;;;;;;;;;;;21.88;nan;96471.22;6107594;19;1960;-69
2022/11/12 11:32:23;;;;;;;;;;;;;;;21.89;nan;96473.72;6116052;19;1073;-67
2022/11/12 11:34:32;;;;;;;;;;;;;;;21.88;nan;96479.25;6117013;19;1048;-67
2022/11/12 11:36:41;;;;;;;;;;;;;;;21.92;nan;96477.06;6117461;19;1273;-69
2022/11/12 11:38:59;;;;;;;;;;;;;;;21.89;nan;96478.25;6116089;19;1858;-69
2022/11/12 11:41:09;;;;;;;;;;;;;;;21.87;nan;96474.94;6103173;19;1631;-69
2022/11/12 11:43:31;;;;;;;;;;;;;;;21.86;nan;96473.28;6116561;19;1877;-68
2022/11/12 11:45:53;;;;;;;;;;;;;;;21.86;nan;96473.28;6118182;19;1125;-69
2022/11/12 11:48:03;;;;;;;;;;;;;;;21.84;nan;96469.94;6116466;19;1066;-66
2022/11/12 11:50:16;;;;;;;;;;;;;;;21.85;nan;96472.44;6118491;19;1432;-69
2022/11/12 11:52:28;;;;;;;;;;;;;;;21.86;nan;96473.28;6098739;19;1453;-68
2022/11/12 11:54:49;;;;;;;;;;;;;;;21.81;nan;96475.66;6115907;19;1037;-69
2022/11/12 11:56:53;;;;;;;;;;;;;;;21.82;nan;96472.78;6116676;19;1659;-68
2022/11/12 11:59:07;;;;;;;;;;;;;;;21.83;nan;96468.28;6116474;19;1192;-66
2022/11/12 12:01:16;;;;;;;;;;;;;;;21.84;nan;96465.41;6114973;19;1376;-69